Wetterdaten: Woche 20.06.11 - 26.06.11 (KW25)
Datum Zeit Temp. A. Feuchte A. Luftdruck Regen Wind Richtung Taupunkt Windchill Windben
20.06.2011 00:00 14,8 C 63 % 1015,4 hPa 0,0 l/m 2,3 km/h W-SW 7,7 C 14,8 C 15,7 km/h
20.06.2011 01:00 14,8 C 62 % 1015,4 hPa 0,0 l/m 3,7 km/h SO 7,6 C 14,8 C 21,3 km/h
20.06.2011 02:00 14,6 C 63 % 1015,6 hPa 0,0 l/m 3,0 km/h NO 7,7 C 14,6 C 19,7 km/h
20.06.2011 03:00 14,5 C 63 % 1015,5 hPa 0,0 l/m 4,8 km/h SO 7,4 C 14,5 C 24,2 km/h
20.06.2011 04:00 14,1 C 64 % 1015,7 hPa 0,0 l/m 3,3 km/h S-SO 7,3 C 14,1 C 14,9 km/h
20.06.2011 05:00 13,9 C 64 % 1016,1 hPa 0,0 l/m 4,3 km/h SW 7,2 C 13,9 C 19,7 km/h
20.06.2011 06:00 14,5 C 64 % 1016,3 hPa 0,0 l/m 7,8 km/h S-SW 7,7 C 13,7 C 29,4 km/h
20.06.2011 07:00 15,1 C 62 % 1016,3 hPa 0,0 l/m 7,2 km/h SW 7,9 C 14,7 C 30,2 km/h
20.06.2011 08:00 16,1 C 58 % 1017,1 hPa 0,0 l/m 6,6 km/h S 7,9 C 16,0 C 24,5 km/h
20.06.2011 09:00 17,4 C 53 % 1017,3 hPa 0,0 l/m 6,6 km/h S-SW 7,6 C 17,3 C 26,2 km/h
20.06.2011 10:00 19,3 C 49 % 1017,3 hPa 0,0 l/m 6,6 km/h SW 8,3 C 19,1 C 26,1 km/h
20.06.2011 11:00 21,3 C 44 % 1017,4 hPa 0,0 l/m 6,3 km/h W-SW 8,4 C 21,2 C 24,5 km/h
20.06.2011 12:00 20,5 C 46 % 1017,4 hPa 0,0 l/m 7,6 km/h SW 8,6 C 20,1 C 26,5 km/h
20.06.2011 13:00 21,3 C 46 % 1016,9 hPa 0,0 l/m 8,9 km/h S 9,1 C 20,4 C 29,0 km/h
20.06.2011 14:00 23,1 C 40 % 1016,5 hPa 0,0 l/m 6,1 km/h W-SW 8,5 C 23,0 C 26,1 km/h
20.06.2011 15:00 22,9 C 41 % 1016,4 hPa 0,0 l/m 4,7 km/h S 8,8 C 22,9 C 20,5 km/h
20.06.2011 16:00 23,4 C 38 % 1016,0 hPa 0,0 l/m 5,7 km/h N-NW 8,4 C 23,4 C 20,9 km/h
20.06.2011 17:00 23,9 C 38 % 1015,7 hPa 0,0 l/m 3,9 km/h N-NW 8,8 C 23,9 C 12,9 km/h
20.06.2011 18:00 22,5 C 42 % 1015,5 hPa 0,0 l/m 4,3 km/h S-SO 8,7 C 22,5 C 17,3 km/h
20.06.2011 19:00 21,3 C 46 % 1015,4 hPa 0,0 l/m 1,4 km/h S-SW 9,2 C 21,3 C 8,4 km/h
20.06.2011 20:00 20,6 C 49 % 1015,4 hPa 0,0 l/m 1,1 km/h S-SW 9,5 C 20,6 C 6,0 km/h
20.06.2011 21:00 19,4 C 55 % 1015,7 hPa 0,0 l/m 0,0 km/h N 9,9 C 19,4 C 0,8 km/h
20.06.2011 22:00 17,9 C 61 % 1015,9 hPa 0,0 l/m 0,2 km/h N 10,3 C 17,9 C 3,2 km/h
20.06.2011 23:00 17,4 C 65 % 1016,3 hPa 0,3 l/m 0,7 km/h SW 10,7 C 17,4 C 5,6 km/h
21.06.2011 00:00 16,8 C 72 % 1016,6 hPa 0,0 l/m 0,4 km/h SW 11,8 C 16,8 C 2,8 km/h
21.06.2011 01:00 16,0 C 77 % 1016,6 hPa 0,0 l/m 0,0 km/h N 12,0 C 16,0 C 1,6 km/h
21.06.2011 02:00 15,3 C 81 % 1016,4 hPa 0,3 l/m 0,1 km/h N 11,9 C 15,3 C 2,4 km/h
21.06.2011 03:00 15,0 C 81 % 1016,5 hPa 0,0 l/m 0,0 km/h N 11,8 C 15,0 C 0,4 km/h
21.06.2011 04:00 14,9 C 82 % 1016,6 hPa 0,0 l/m 0,0 km/h N 11,9 C 14,9 C 1,2 km/h
21.06.2011 05:00 15,1 C 82 % 1016,5 hPa 0,0 l/m 0,1 km/h N 12,1 C 15,1 C 2,0 km/h
21.06.2011 06:00 15,9 C 81 % 1016,8 hPa 0,0 l/m 0,1 km/h N 12,6 C 15,9 C 2,4 km/h
21.06.2011 07:00 17,8 C 75 % 1017,0 hPa 0,0 l/m 1,5 km/h S 13,3 C 17,8 C 7,6 km/h
21.06.2011 08:00 20,5 C 66 % 1016,9 hPa 0,0 l/m 3,8 km/h SW 13,9 C 20,5 C 14,5 km/h
21.06.2011 09:00 21,6 C 62 % 1016,7 hPa 0,0 l/m 2,9 km/h S-SW 14,0 C 21,6 C 11,3 km/h
21.06.2011 10:00 24,6 C 53 % 1016,5 hPa 0,0 l/m 3,6 km/h S-SO 14,4 C 24,6 C 13,7 km/h
21.06.2011 11:00 27,9 C 44 % 1016,4 hPa 0,0 l/m 2,8 km/h SW 14,5 C 27,9 C 13,3 km/h
21.06.2011 12:00 28,6 C 42 % 1016,4 hPa 0,0 l/m 3,7 km/h S-SW 14,5 C 28,6 C 15,7 km/h
21.06.2011 13:00 29,7 C 43 % 1016,4 hPa 0,0 l/m 2,3 km/h S 15,7 C 29,7 C 11,3 km/h
21.06.2011 14:00 30,4 C 43 % 1016,1 hPa 0,0 l/m 2,8 km/h N 16,2 C 30,4 C 10,5 km/h
21.06.2011 15:00 31,4 C 41 % 1015,7 hPa 0,0 l/m 2,9 km/h S-SO 16,4 C 31,4 C 11,3 km/h
21.06.2011 16:00 31,5 C 40 % 1015,2 hPa 0,0 l/m 3,8 km/h SW 16,0 C 31,5 C 16,1 km/h
21.06.2011 17:00 31,2 C 38 % 1015,2 hPa 0,0 l/m 3,4 km/h W-SW 15,3 C 31,2 C 15,3 km/h
21.06.2011 18:00 30,0 C 43 % 1015,2 hPa 0,0 l/m 1,5 km/h S 16,1 C 30,0 C 10,4 km/h
21.06.2011 19:00 28,0 C 49 % 1015,2 hPa 0,0 l/m 1,0 km/h SW 16,1 C 28,0 C 5,2 km/h
21.06.2011 20:00 26,4 C 55 % 1015,3 hPa 0,0 l/m 1,3 km/h S-SW 16,6 C 26,4 C 6,8 km/h
21.06.2011 21:00 24,5 C 62 % 1015,8 hPa 0,0 l/m 0,4 km/h N 16,8 C 24,5 C 4,0 km/h
21.06.2011 22:00 22,2 C 68 % 1016,1 hPa 0,0 l/m 0,8 km/h N 16,0 C 22,2 C 5,2 km/h
21.06.2011 23:00 21,2 C 68 % 1016,4 hPa 0,0 l/m 0,3 km/h N 15,0 C 21,2 C 4,0 km/h
22.06.2011 00:00 20,1 C 69 % 1016,6 hPa 0,0 l/m 0,2 km/h N 14,3 C 20,1 C 2,0 km/h
22.06.2011 01:00 19,4 C 71 % 1016,7 hPa 0,0 l/m 0,1 km/h N 14,0 C 19,4 C 1,2 km/h
22.06.2011 02:00 18,8 C 72 % 1016,4 hPa 0,0 l/m 0,4 km/h S-SW 13,7 C 18,8 C 4,4 km/h
22.06.2011 03:00 18,3 C 74 % 1016,5 hPa 0,0 l/m 0,0 km/h N 13,6 C 18,3 C 0,0 km/h
22.06.2011 04:00 17,1 C 78 % 1016,5 hPa 0,0 l/m 0,0 km/h N 13,1 C 17,1 C 0,0 km/h
22.06.2011 05:00 16,4 C 80 % 1016,7 hPa 0,0 l/m 0,0 km/h N 12,9 C 16,4 C 0,4 km/h
22.06.2011 06:00 16,6 C 81 % 1016,7 hPa 0,0 l/m 0,0 km/h N 13,4 C 16,6 C 1,6 km/h
22.06.2011 07:00 18,4 C 81 % 1016,9 hPa 0,0 l/m 0,0 km/h N 15,0 C 18,4 C 0,8 km/h
22.06.2011 08:00 20,1 C 77 % 1016,8 hPa 0,0 l/m 0,1 km/h N 16,0 C 20,1 C 2,4 km/h
22.06.2011 09:00 22,8 C 65 % 1016,7 hPa 0,0 l/m 1,6 km/h S-SW 15,9 C 22,8 C 10,9 km/h
22.06.2011 10:00 26,5 C 56 % 1016,3 hPa 0,0 l/m 2,0 km/h SW 16,9 C 26,5 C 11,6 km/h
22.06.2011 11:00 29,7 C 48 % 1015,8 hPa 0,0 l/m 0,7 km/h N 17,4 C 29,7 C 6,4 km/h
22.06.2011 12:00 30,6 C 48 % 1015,2 hPa 0,0 l/m 1,4 km/h O-SO 18,3 C 30,6 C 6,4 km/h
22.06.2011 13:00 32,8 C 44 % 1014,3 hPa 0,0 l/m 1,4 km/h NO 18,9 C 32,8 C 7,6 km/h
22.06.2011 14:00 33,8 C 41 % 1013,5 hPa 0,0 l/m 1,3 km/h O 18,6 C 33,8 C 10,0 km/h
22.06.2011 15:00 33,1 C 42 % 1012,6 hPa 0,0 l/m 1,9 km/h O-NO 18,6 C 33,1 C 6,8 km/h
22.06.2011 16:00 33,9 C 41 % 1011,4 hPa 0,0 l/m 1,6 km/h O-NO 18,7 C 33,9 C 8,4 km/h
22.06.2011 17:00 33,4 C 44 % 1010,4 hPa 0,0 l/m 1,7 km/h N-NO 19,5 C 33,4 C 8,0 km/h
22.06.2011 18:00 32,4 C 46 % 1009,5 hPa 0,0 l/m 2,5 km/h O 19,1 C 32,4 C 12,9 km/h
22.06.2011 19:00 29,7 C 51 % 1009,1 hPa 0,0 l/m 2,5 km/h S 18,5 C 29,7 C 15,7 km/h
22.06.2011 20:00 28,3 C 55 % 1009,6 hPa 0,0 l/m 1,9 km/h SW 18,2 C 28,3 C 11,3 km/h
22.06.2011 21:00 27,4 C 44 % 1010,4 hPa 0,0 l/m 5,3 km/h S 13,9 C 27,4 C 19,3 km/h
22.06.2011 22:00 26,4 C 48 % 1011,1 hPa 0,0 l/m 0,5 km/h N 14,4 C 26,4 C 4,0 km/h
22.06.2011 23:00 24,2 C 57 % 1013,1 hPa 0,0 l/m 6,7 km/h S-SW 15,0 C 23,5 C 25,3 km/h
23.06.2011 00:00 22,3 C 56 % 1013,9 hPa 0,0 l/m 9,4 km/h W 13,0 C 21,3 C 32,6 km/h
23.06.2011 01:00 21,6 C 57 % 1013,8 hPa 0,0 l/m 6,7 km/h W-SW 12,7 C 21,3 C 23,4 km/h
23.06.2011 02:00 21,1 C 61 % 1014,3 hPa 0,0 l/m 8,7 km/h NW 13,3 C 20,3 C 31,4 km/h
23.06.2011 03:00 19,9 C 70 % 1015,0 hPa 0,0 l/m 5,4 km/h NW 14,1 C 19,7 C 21,7 km/h
23.06.2011 04:00 18,8 C 75 % 1015,7 hPa 0,3 l/m 3,8 km/h NW 14,3 C 18,8 C 14,9 km/h
23.06.2011 05:00 18,3 C 77 % 1016,6 hPa 0,0 l/m 1,2 km/h NW 14,1 C 18,3 C 6,5 km/h
23.06.2011 06:00 18,3 C 76 % 1017,0 hPa 0,0 l/m 1,6 km/h N-NW 14,0 C 18,3 C 8,9 km/h
23.06.2011 07:00 18,6 C 75 % 1017,3 hPa 0,0 l/m 0,8 km/h N 14,1 C 18,6 C 6,4 km/h
23.06.2011 08:00 20,3 C 68 % 1017,7 hPa 0,0 l/m 2,4 km/h NW 14,1 C 20,3 C 9,6 km/h
23.06.2011 09:00 21,1 C 64 % 1018,0 hPa 0,0 l/m 4,0 km/h N-NW 13,9 C 21,1 C 12,1 km/h
23.06.2011 10:00 22,5 C 60 % 1017,5 hPa 0,0 l/m 2,4 km/h N-NW 14,3 C 22,5 C 8,0 km/h
23.06.2011 11:00 25,0 C 52 % 1017,5 hPa 0,0 l/m 1,6 km/h N-NW 14,5 C 25,0 C 7,2 km/h
23.06.2011 12:00 25,0 C 53 % 1017,2 hPa 0,0 l/m 0,0 km/h N 14,6 C 25,0 C 3,2 km/h
23.06.2011 13:00 27,0 C 47 % 1016,5 hPa 0,0 l/m 0,8 km/h S 14,7 C 27,0 C 6,4 km/h
23.06.2011 14:00 27,9 C 46 % 1015,3 hPa 0,0 l/m 0,8 km/h NO 15,0 C 27,9 C 5,6 km/h
23.06.2011 15:00 25,5 C 52 % 1014,8 hPa 0,0 l/m 0,8 km/h N 14,8 C 25,5 C 4,8 km/h
23.06.2011 16:00 23,9 C 63 % 1014,6 hPa 0,5 l/m 0,0 km/h N 16,4 C 23,9 C 3,2 km/h
23.06.2011 17:00 23,1 C 61 % 1013,8 hPa 0,0 l/m 0,0 km/h N 15,1 C 23,1 C 1,6 km/h
23.06.2011 18:00 21,2 C 71 % 1013,5 hPa 5,7 l/m 1,6 km/h SW 15,5 C 21,2 C 16,1 km/h
23.06.2011 19:00 18,5 C 81 % 1015,3 hPa 0,5 l/m 4,0 km/h N-NW 15,2 C 18,5 C 9,6 km/h
23.06.2011 20:00 17,5 C 81 % 1015,6 hPa 4,9 l/m 1,6 km/h N 14,2 C 17,5 C 8,1 km/h
23.06.2011 21:00 17,0 C 81 % 1016,5 hPa 3,1 l/m 2,4 km/h N-NW 13,6 C 17,0 C 8,1 km/h
23.06.2011 22:00 16,8 C 80 % 1016,9 hPa 0,8 l/m 2,4 km/h N-NW 13,3 C 16,8 C 8,0 km/h
23.06.2011 23:00 16,3 C 81 % 1016,5 hPa 0,0 l/m 0,0 km/h N 12,9 C 16,3 C 4,8 km/h
24.06.2011 00:00 16,0 C 81 % 1016,3 hPa 0,3 l/m 0,0 km/h N 12,7 C 16,0 C 1,6 km/h
24.06.2011 01:00 15,6 C 81 % 1015,8 hPa 0,0 l/m 0,0 km/h S-SW 12,3 C 15,6 C 2,4 km/h
24.06.2011 02:00 15,4 C 82 % 1015,9 hPa 0,0 l/m 1,6 km/h SO 12,3 C 15,4 C 12,1 km/h
24.06.2011 03:00 16,0 C 80 % 1016,8 hPa 0,0 l/m 3,2 km/h W 12,5 C 16,0 C 16,9 km/h
24.06.2011 04:00 16,2 C 80 % 1017,1 hPa 0,0 l/m 3,2 km/h NW 12,6 C 16,2 C 11,3 km/h
24.06.2011 05:00 16,2 C 79 % 1017,5 hPa 0,0 l/m 4,0 km/h NW 12,5 C 16,2 C 15,3 km/h
24.06.2011 06:00 16,5 C 79 % 1017,7 hPa 0,0 l/m 4,0 km/h NW 12,8 C 16,5 C 25,8 km/h
24.06.2011 07:00 17,0 C 77 % 1018,3 hPa 0,0 l/m 3,2 km/h NW 12,8 C 17,0 C 15,3 km/h
24.06.2011 08:00 17,3 C 75 % 1018,8 hPa 0,0 l/m 2,4 km/h N-NW 12,7 C 17,3 C 14,5 km/h
24.06.2011 09:00 17,8 C 73 % 1019,4 hPa 0,0 l/m 2,4 km/h N-NW 12,8 C 17,8 C 15,3 km/h
24.06.2011 10:00 18,4 C 67 % 1019,5 hPa 0,0 l/m 3,6 km/h N-NO 12,0 C 18,4 C 17,2 km/h
24.06.2011 11:00 19,9 C 60 % 1019,3 hPa 0,0 l/m 4,7 km/h O-NO 11,7 C 19,9 C 25,4 km/h
24.06.2011 12:00 19,8 C 57 % 1019,3 hPa 0,0 l/m 4,1 km/h W-SW 10,9 C 19,8 C 20,9 km/h
24.06.2011 13:00 20,8 C 50 % 1019,0 hPa 0,0 l/m 3,7 km/h S-SW 9,9 C 20,8 C 16,9 km/h
24.06.2011 14:00 20,9 C 49 % 1018,6 hPa 0,0 l/m 4,6 km/h S 9,9 C 20,9 C 19,3 km/h
24.06.2011 15:00 21,9 C 47 % 1018,0 hPa 0,0 l/m 4,6 km/h S 10,1 C 21,9 C 19,7 km/h
24.06.2011 16:00 23,7 C 42 % 1017,6 hPa 0,0 l/m 4,1 km/h S 10,1 C 23,7 C 15,7 km/h
24.06.2011 17:00 23,9 C 42 % 1017,3 hPa 0,0 l/m 4,5 km/h SW 10,1 C 23,9 C 16,1 km/h
24.06.2011 18:00 22,6 C 44 % 1017,3 hPa 0,0 l/m 3,2 km/h S-SW 9,8 C 22,6 C 14,9 km/h
24.06.2011 19:00 20,6 C 50 % 1017,7 hPa 0,0 l/m 2,3 km/h S 9,7 C 20,6 C 12,1 km/h
24.06.2011 20:00 19,0 C 56 % 1018,6 hPa 0,0 l/m 3,1 km/h W-SW 10,0 C 19,0 C 15,3 km/h
24.06.2011 21:00 17,3 C 58 % 1019,4 hPa 0,0 l/m 2,5 km/h S-SW 9,0 C 17,3 C 14,9 km/h
24.06.2011 22:00 16,5 C 62 % 1019,8 hPa 0,0 l/m 4,2 km/h W-NW 9,1 C 16,5 C 18,9 km/h
24.06.2011 23:00 14,4 C 75 % 1020,5 hPa 0,5 l/m 2,4 km/h S 10,0 C 14,4 C 12,4 km/h
25.06.2011 00:00 13,7 C 79 % 1020,9 hPa 0,0 l/m 1,6 km/h N-NW 10,1 C 13,7 C 6,8 km/h
25.06.2011 01:00 13,7 C 80 % 1021,1 hPa 0,0 l/m 0,9 km/h NW 10,4 C 13,7 C 5,2 km/h
25.06.2011 02:00 13,3 C 77 % 1021,3 hPa 0,0 l/m 0,9 km/h W-NW 9,4 C 13,3 C 6,4 km/h
25.06.2011 03:00 12,9 C 78 % 1021,4 hPa 0,0 l/m 1,1 km/h NO 9,1 C 12,9 C 5,2 km/h
25.06.2011 04:00 12,4 C 78 % 1021,5 hPa 0,0 l/m 1,0 km/h N-NW 8,6 C 12,4 C 5,6 km/h
25.06.2011 05:00 12,1 C 78 % 1022,0 hPa 0,0 l/m 1,5 km/h N 8,4 C 12,1 C 6,8 km/h
25.06.2011 06:00 12,3 C 78 % 1022,4 hPa 0,0 l/m 1,8 km/h N-NW 8,5 C 12,3 C 6,4 km/h
25.06.2011 07:00 13,6 C 74 % 1022,5 hPa 0,0 l/m 3,1 km/h NW 9,1 C 13,6 C 12,5 km/h
25.06.2011 08:00 14,6 C 71 % 1022,9 hPa 0,0 l/m 4,2 km/h N-NW 9,3 C 14,6 C 13,3 km/h
25.06.2011 09:00 15,4 C 67 % 1023,2 hPa 0,0 l/m 4,5 km/h N-NW 9,3 C 15,4 C 14,9 km/h
25.06.2011 10:00 17,2 C 63 % 1023,0 hPa 0,0 l/m 4,2 km/h SW 10,1 C 17,2 C 14,1 km/h
25.06.2011 11:00 18,8 C 55 % 1022,7 hPa 0,0 l/m 4,8 km/h N-NO 9,6 C 18,8 C 16,5 km/h
25.06.2011 12:00 19,7 C 53 % 1022,7 hPa 0,0 l/m 5,3 km/h W-SW 9,9 C 19,7 C 22,1 km/h
25.06.2011 13:00 20,4 C 51 % 1022,4 hPa 0,0 l/m 5,8 km/h S-SW 9,8 C 20,4 C 22,1 km/h
25.06.2011 14:00 21,3 C 49 % 1022,2 hPa 0,0 l/m 5,8 km/h W 10,2 C 21,2 C 22,5 km/h
25.06.2011 15:00 22,2 C 44 % 1022,2 hPa 0,0 l/m 5,3 km/h N-NW 9,3 C 22,2 C 18,9 km/h
25.06.2011 16:00 21,7 C 45 % 1022,0 hPa 0,0 l/m 3,6 km/h W 9,2 C 21,7 C 18,9 km/h
25.06.2011 17:00 20,6 C 48 % 1021,9 hPa 0,0 l/m 2,4 km/h SW 9,1 C 20,6 C 8,0 km/h
25.06.2011 18:00 21,0 C 46 % 1021,8 hPa 0,0 l/m 2,3 km/h N-NO 8,8 C 21,0 C 8,1 km/h
25.06.2011 19:00 19,3 C 50 % 1022,1 hPa 0,0 l/m 2,1 km/h S-SW 8,6 C 19,3 C 10,9 km/h
25.06.2011 20:00 18,0 C 55 % 1022,5 hPa 0,0 l/m 1,7 km/h S-SW 8,7 C 18,0 C 8,5 km/h
25.06.2011 21:00 17,3 C 58 % 1023,0 hPa 0,0 l/m 1,8 km/h S 8,8 C 17,3 C 12,9 km/h
25.06.2011 22:00 16,9 C 59 % 1023,5 hPa 0,0 l/m 3,2 km/h S-SW 8,8 C 16,9 C 16,5 km/h
25.06.2011 23:00 16,3 C 61 % 1023,6 hPa 0,0 l/m 2,5 km/h S-SW 8,8 C 16,3 C 14,9 km/h
26.06.2011 00:00 15,8 C 63 % 1023,4 hPa 0,0 l/m 2,2 km/h SW 8,7 C 15,8 C 15,3 km/h
26.06.2011 01:00 15,5 C 63 % 1023,3 hPa 0,0 l/m 1,6 km/h SO 8,5 C 15,5 C 11,7 km/h
26.06.2011 02:00 15,4 C 65 % 1022,9 hPa 0,0 l/m 3,1 km/h N-NO 8,7 C 15,4 C 18,9 km/h
26.06.2011 03:00 15,0 C 69 % 1022,8 hPa 0,0 l/m 1,8 km/h NW 9,4 C 15,0 C 12,9 km/h
26.06.2011 04:00 14,8 C 73 % 1022,8 hPa 0,0 l/m 1,1 km/h NW 10,0 C 14,8 C 9,7 km/h
26.06.2011 05:00 14,4 C 78 % 1022,8 hPa 0,3 l/m 1,0 km/h W 10,6 C 14,4 C 6,8 km/h
26.06.2011 06:00 14,0 C 82 % 1022,8 hPa 0,0 l/m 0,3 km/h N 10,9 C 14,0 C 3,2 km/h
26.06.2011 07:00 14,3 C 82 % 1023,0 hPa 0,5 l/m 0,3 km/h N 11,3 C 14,3 C 2,4 km/h
26.06.2011 08:00 14,7 C 82 % 1022,9 hPa 0,0 l/m 0,2 km/h N 11,7 C 14,7 C 4,0 km/h
26.06.2011 09:00 15,1 C 82 % 1022,8 hPa 0,0 l/m 0,3 km/h N 12,1 C 15,1 C 5,2 km/h
26.06.2011 10:00 16,4 C 81 % 1022,5 hPa 0,0 l/m 1,4 km/h N-NW 13,2 C 16,4 C 6,0 km/h
26.06.2011 11:00 17,3 C 79 % 1022,4 hPa 0,0 l/m 1,7 km/h W 13,5 C 17,3 C 6,8 km/h
26.06.2011 12:00 18,5 C 77 % 1022,1 hPa 0,0 l/m 1,0 km/h N-NO 14,3 C 18,5 C 5,2 km/h
26.06.2011 13:00 19,3 C 72 % 1022,0 hPa 0,0 l/m 1,7 km/h N 14,1 C 19,3 C 6,8 km/h
26.06.2011 14:00 21,3 C 67 % 1021,7 hPa 0,0 l/m 1,6 km/h N-NO 15,0 C 21,3 C 6,8 km/h
26.06.2011 15:00 19,4 C 77 % 1021,8 hPa 7,3 l/m 0,5 km/h N 15,2 C 19,4 C 4,4 km/h
26.06.2011 16:00 20,2 C 80 % 1021,8 hPa 0,0 l/m 1,3 km/h N 16,6 C 20,2 C 5,2 km/h
26.06.2011 17:00 22,8 C 67 % 1021,5 hPa 0,0 l/m 3,1 km/h N 16,2 C 22,8 C 9,7 km/h
26.06.2011 18:00 22,6 C 65 % 1021,6 hPa 0,0 l/m 1,7 km/h N-NW 15,5 C 22,6 C 6,0 km/h
26.06.2011 19:00 21,7 C 65 % 1021,8 hPa 0,0 l/m 1,0 km/h N 14,7 C 21,7 C 5,2 km/h
26.06.2011 20:00 20,8 C 68 % 1022,2 hPa 0,0 l/m 0,0 km/h N 14,7 C 20,8 C 0,8 km/h
26.06.2011 21:00 19,6 C 72 % 1022,5 hPa 0,0 l/m 0,0 km/h N 14,4 C 19,6 C 0,4 km/h
26.06.2011 22:00 18,0 C 76 % 1022,8 hPa 0,0 l/m 0,0 km/h N 13,7 C 18,0 C 0,0 km/h
26.06.2011 23:00 16,8 C 80 % 1023,0 hPa 0,0 l/m 0,0 km/h N 13,2 C 16,8 C 0,0 km/h
Min-Datum _ 25.06.11 20.06.11 22.06.11 - 20.06.11 - 20.06.11 25.06.11 20.06.11
_ Min-Zeit 05:45 16:00 19:45 - 21:00 - 05:00 06:00 21:15
Minimum _ 11,9 C 37 % 1008,9 hPa - 0,0 km/h - 7,1 C 11,9 C 0,0 km/h
Max-Datum _ 22.06.11 21.06.11 25.06.11 26.06.11 22.06.11 - 22.06.11 22.06.11 22.06.11
_ Max-Zeit 16:45 03:45 22:30 15:15 23:45 - 17:30 16:30 23:45
Maximum _ 34,1 C 82 % 1023,6 hPa 7,3 l/m 12,8 km/h
S-SW
- 19,6 C 34,0 C 40,2 km/h
S-SW
Durchschnitt _ 20,2 C 63 % 1017,9 hPa #25,2 l/m 2,5 km/h N-NW 12,3 C 20,1 C 11,3 km/h